createdAt,value
2018-09-11T00:00:03.865Z,119
2018-09-11T00:05:03.852Z,119
2018-09-11T00:10:03.849Z,119
2018-09-11T00:15:03.864Z,119
2018-09-11T00:20:03.854Z,119
2018-09-11T00:25:03.856Z,119
2018-09-11T00:30:03.872Z,119
2018-09-11T00:35:03.861Z,119
2018-09-11T00:40:03.866Z,119
2018-09-11T00:45:03.881Z,119
2018-09-11T00:50:03.869Z,119
2018-09-11T00:55:03.884Z,119
2018-09-11T01:00:03.884Z,119
2018-09-11T01:05:03.881Z,119
2018-09-11T01:10:03.963Z,119
2018-09-11T01:15:03.901Z,119
2018-09-11T01:20:03.890Z,119
2018-09-11T01:25:03.890Z,119
2018-09-11T01:30:03.899Z,119
2018-09-11T01:35:03.898Z,119
2018-09-11T01:40:03.900Z,119
2018-09-11T01:45:03.911Z,119
2018-09-11T01:50:03.904Z,119
2018-09-11T01:55:03.907Z,119
2018-09-11T02:00:03.925Z,119
2018-09-11T02:05:03.917Z,119
2018-09-11T02:10:03.978Z,119
2018-09-11T02:15:03.926Z,119
2018-09-11T02:20:03.920Z,119
2018-09-11T02:25:03.921Z,119
2018-09-11T02:30:03.940Z,119
2018-09-11T02:35:03.931Z,119
2018-09-11T02:40:03.932Z,119
2018-09-11T02:45:03.953Z,119
2018-09-11T02:50:03.936Z,119
2018-09-11T02:55:03.954Z,119
2018-09-11T03:00:03.958Z,119
2018-09-11T03:05:03.947Z,119
2018-09-11T03:10:03.953Z,119
2018-09-11T03:15:03.969Z,119
2018-09-11T03:20:03.953Z,119
2018-09-11T03:25:03.958Z,119
2018-09-11T03:30:03.963Z,119
2018-09-11T03:35:03.958Z,119
2018-09-11T03:40:03.964Z,119
2018-09-11T03:45:03.976Z,119
2018-09-11T03:50:03.976Z,119
2018-09-11T03:55:03.972Z,119
2018-09-11T04:00:04.045Z,119
2018-09-11T04:05:03.985Z,119
2018-09-11T04:10:03.977Z,119
2018-09-11T04:15:04.008Z,119
2018-09-11T04:20:03.985Z,119
2018-09-11T04:25:04.002Z,119
2018-09-11T04:30:03.998Z,119
2018-09-11T04:35:03.986Z,119
2018-09-11T04:40:03.997Z,119
2018-09-11T04:45:04.001Z,119
2018-09-11T04:50:04.003Z,119
2018-09-11T04:55:03.999Z,119
2018-09-11T05:00:04.023Z,119
2018-09-11T05:05:04.008Z,119
2018-09-11T05:10:04.019Z,119
2018-09-11T05:15:04.021Z,119
2018-09-11T05:20:04.016Z,119
2018-09-11T05:25:04.021Z,119
2018-09-11T05:30:04.038Z,119
2018-09-11T05:35:04.027Z,119
2018-09-11T05:40:04.028Z,119
2018-09-11T05:45:04.045Z,119
2018-09-11T05:50:04.030Z,119
2018-09-11T05:55:04.035Z,119
2018-09-11T06:00:04.044Z,119
2018-09-11T06:05:04.045Z,119
2018-09-11T06:10:04.055Z,119
2018-09-11T06:15:04.048Z,119
2018-09-11T06:20:04.054Z,119
2018-09-11T06:25:04.051Z,119
2018-09-11T06:30:04.074Z,119
2018-09-11T06:35:04.063Z,119
2018-09-11T06:40:04.060Z,119
2018-09-11T06:45:04.072Z,119
2018-09-11T06:50:04.067Z,119
2018-09-11T06:55:04.068Z,119
2018-09-11T07:00:04.085Z,119
2018-09-11T07:05:04.070Z,119
2018-09-11T07:10:04.076Z,119
2018-09-11T07:15:04.081Z,119
2018-09-11T07:20:04.680Z,119
2018-09-11T07:25:04.091Z,119
2018-09-11T07:30:04.106Z,119
2018-09-11T07:35:04.087Z,119
2018-09-11T07:40:04.094Z,119
2018-09-11T07:45:04.098Z,119
2018-09-11T07:50:04.099Z,119
2018-09-11T07:55:04.122Z,119
2018-09-11T08:00:04.109Z,119
2018-09-11T08:05:04.209Z,119
2018-09-11T08:10:04.115Z,119
2018-09-11T08:15:04.120Z,119
2018-09-11T08:20:04.135Z,119
2018-09-11T08:25:04.135Z,119
2018-09-11T08:30:04.121Z,119
2018-09-11T08:35:04.119Z,119
2018-09-11T08:40:04.125Z,119
2018-09-11T08:45:04.135Z,106.08
2018-09-11T08:50:04.132Z,105.33
2018-09-11T08:55:04.130Z,97.03
2018-09-11T09:00:04.145Z,97.58
2018-09-11T09:05:04.139Z,86.31
2018-09-11T09:10:04.297Z,72.75
2018-09-11T09:15:04.154Z,66.65
2018-09-11T09:20:04.149Z,63.69
2018-09-11T09:25:04.148Z,60.36
2018-09-11T09:30:04.168Z,57.01
2018-09-11T09:35:04.147Z,37.77
2018-09-11T09:40:04.152Z,42.01
2018-09-11T09:45:04.176Z,26.96
2018-09-11T09:50:04.161Z,24.16
2018-09-11T09:55:04.172Z,27.07
2018-09-11T10:00:04.187Z,9.4
2018-09-11T10:05:04.171Z,16.14
2018-09-11T10:10:04.176Z,17.3
2018-09-11T10:15:04.195Z,6.21
2018-09-11T10:20:04.180Z,6.81
2018-09-11T10:25:04.184Z,3.56
2018-09-11T10:30:04.188Z,-3.67
2018-09-11T10:35:04.186Z,-1.06
2018-09-11T10:40:04.193Z,-2.27
2018-09-11T10:45:04.410Z,-6
2018-09-11T10:50:04.200Z,-6
2018-09-11T10:55:04.195Z,-2.88
2018-09-11T11:00:04.199Z,-1.98
2018-09-11T11:05:04.222Z,-6
2018-09-11T11:10:04.202Z,-6
2018-09-11T11:15:04.241Z,-6
2018-09-11T11:20:04.211Z,-6
2018-09-11T11:25:04.218Z,-6
2018-09-11T11:30:04.213Z,-6
2018-09-11T11:35:04.222Z,-6
2018-09-11T11:40:04.222Z,-6
2018-09-11T11:45:04.245Z,-6
2018-09-11T11:50:04.223Z,-6
2018-09-11T11:55:04.469Z,-6
2018-09-11T12:00:04.249Z,-6
2018-09-11T12:05:04.233Z,-6
2018-09-11T12:10:04.234Z,-6
2018-09-11T12:15:04.248Z,-6
2018-09-11T12:20:04.250Z,-6
2018-09-11T12:25:04.245Z,-6
2018-09-11T12:30:04.254Z,-6
2018-09-11T12:35:04.313Z,-6
2018-09-11T12:40:04.254Z,-6
2018-09-11T12:45:04.262Z,-6
2018-09-11T12:50:04.256Z,-6
2018-09-11T12:55:04.261Z,-6
2018-09-11T13:00:04.279Z,-6
2018-09-11T13:05:04.268Z,-6
2018-09-11T13:10:04.269Z,-6
2018-09-11T13:15:04.366Z,-6
2018-09-11T13:20:04.276Z,-6
2018-09-11T13:25:04.279Z,-6
2018-09-11T13:30:04.316Z,-6
2018-09-11T13:35:04.284Z,-6
2018-09-11T13:40:04.284Z,-6
2018-09-11T13:45:04.293Z,-6
2018-09-11T13:50:04.292Z,-6
2018-09-11T13:55:04.298Z,-6
2018-09-11T14:00:04.312Z,-6
2018-09-11T14:05:04.305Z,-6
2018-09-11T14:10:04.298Z,-6
2018-09-11T14:15:04.317Z,-6
2018-09-11T14:20:04.306Z,-6
2018-09-11T14:25:04.313Z,-6
2018-09-11T14:30:04.321Z,-6
2018-09-11T14:35:04.321Z,-6
2018-09-11T14:40:04.342Z,-6
2018-09-11T14:45:04.352Z,-6
2018-09-11T14:50:04.336Z,-6
2018-09-11T14:55:04.330Z,-6
2018-09-11T15:00:04.390Z,-6
2018-09-11T15:05:04.339Z,-6
2018-09-11T15:10:04.336Z,-6
2018-09-11T15:15:04.522Z,-6
2018-09-11T15:20:04.335Z,-6
2018-09-11T15:25:04.349Z,-6
2018-09-11T15:30:04.618Z,-6
2018-09-11T15:35:04.362Z,-6
2018-09-11T15:40:04.361Z,-6
2018-09-11T15:45:04.376Z,-6
2018-09-11T15:50:04.364Z,-6
2018-09-11T15:55:04.378Z,-6
2018-09-11T16:00:04.371Z,-6
2018-09-11T16:05:04.385Z,-6
2018-09-11T16:10:04.388Z,-6
2018-09-11T16:15:04.547Z,-6
2018-09-11T16:20:04.386Z,-6
2018-09-11T16:25:04.373Z,-6
2018-09-11T16:30:04.521Z,-6
2018-09-11T16:35:04.379Z,-6
2018-09-11T16:40:04.510Z,-6
2018-09-11T16:45:04.389Z,-6
2018-09-11T16:50:04.392Z,-6
2018-09-11T16:55:04.390Z,-6
2018-09-11T17:00:04.399Z,-6
2018-09-11T17:05:04.394Z,-6
2018-09-11T17:10:04.399Z,-6
2018-09-11T17:15:04.402Z,-6
2018-09-11T17:20:04.455Z,-6
2018-09-11T17:25:04.405Z,-6
2018-09-11T17:30:04.418Z,-6
2018-09-11T17:35:04.417Z,-6
2018-09-11T17:40:04.409Z,-6
2018-09-11T17:45:04.437Z,-6
2018-09-11T17:50:03.426Z,-6
2018-09-11T17:55:03.426Z,-6
2018-09-11T18:00:03.435Z,-6
2018-09-11T18:05:03.429Z,-6
2018-09-11T18:10:03.435Z,-6
2018-09-11T18:15:03.442Z,-6
2018-09-11T18:20:03.499Z,-6
2018-09-11T18:25:03.443Z,-6
2018-09-11T18:30:03.440Z,-6
2018-09-11T18:35:03.449Z,-6
2018-09-11T18:40:03.473Z,-6
2018-09-11T18:45:03.705Z,-6
2018-09-11T18:50:03.451Z,-6
2018-09-11T18:55:03.454Z,-6
2018-09-11T19:00:03.460Z,-6
2018-09-11T19:05:03.642Z,-6
2018-09-11T19:10:03.460Z,-6
2018-09-11T19:15:03.470Z,-6
2018-09-11T19:20:03.624Z,-6
2018-09-11T19:25:03.475Z,-6
2018-09-11T19:30:03.474Z,-6
2018-09-11T19:35:03.480Z,-6
2018-09-11T19:40:03.484Z,-6
2018-09-11T19:45:03.482Z,-4.34
2018-09-11T19:50:03.635Z,-3.92
2018-09-11T19:55:03.512Z,1.5
2018-09-11T20:00:03.504Z,-1.75
2018-09-11T20:05:03.756Z,2.59
2018-09-11T20:10:03.500Z,2.92
2018-09-11T20:15:03.492Z,2.34
2018-09-11T20:20:03.500Z,7.68
2018-09-11T20:25:03.505Z,7.97
2018-09-11T20:30:03.502Z,8.18
2018-09-11T20:35:03.528Z,13.25
2018-09-11T20:40:03.507Z,18.27
2018-09-11T20:45:03.793Z,20.85
2018-09-11T20:50:03.529Z,26.88
2018-09-11T20:55:03.522Z,28.73
2018-09-11T21:00:03.525Z,31.36
2018-09-11T21:05:03.546Z,33.79
2018-09-11T21:10:03.526Z,36.96
2018-09-11T21:15:03.523Z,37.33
2018-09-11T21:20:03.535Z,37.82
2018-09-11T21:25:03.540Z,41.28
2018-09-11T21:30:03.541Z,45.77
2018-09-11T21:35:03.553Z,48.49
2018-09-11T21:40:03.541Z,52.73
2018-09-11T21:45:03.548Z,48.43
2018-09-11T21:50:03.558Z,51.46
2018-09-11T21:55:03.553Z,49.42
2018-09-11T22:00:03.727Z,49.71
2018-09-11T22:05:03.572Z,46.11
2018-09-11T22:10:03.553Z,46.19
2018-09-11T22:15:03.560Z,44.89
2018-09-11T22:20:03.577Z,50.75
2018-09-11T22:25:03.576Z,51.64
2018-09-11T22:30:03.574Z,52.16
2018-09-11T22:35:03.586Z,54.56
2018-09-11T22:40:03.576Z,55.59
2018-09-11T22:45:03.580Z,56.46
2018-09-11T22:50:03.583Z,56.21
2018-09-11T22:55:03.582Z,53.6
2018-09-11T23:00:03.589Z,54.95
2018-09-11T23:05:03.591Z,56.16
2018-09-11T23:10:03.589Z,51.41
2018-09-11T23:15:03.591Z,53.34
2018-09-11T23:20:03.600Z,53.7
2018-09-11T23:25:03.601Z,53.86
2018-09-11T23:30:03.603Z,52.19
2018-09-11T23:35:03.612Z,53.52
2018-09-11T23:40:03.609Z,52.45
2018-09-11T23:45:03.606Z,51.58
2018-09-11T23:50:03.626Z,50.63
2018-09-11T23:55:03.620Z,46.3
